createdAt,value
2022-11-07T00:01:01.128Z,2.17
2022-11-07T00:03:32.831Z,2.33
2022-11-07T00:06:04.791Z,2.30
2022-11-07T00:08:36.859Z,2.17
2022-11-07T00:11:09.429Z,2.50
2022-11-07T00:13:43.176Z,2.83
2022-11-07T00:16:15.000Z,1.80
2022-11-07T00:18:46.784Z,2.20
2022-11-07T00:21:18.456Z,2.50
2022-11-07T00:23:50.368Z,2.37
2022-11-07T00:26:22.437Z,2.20
2022-11-07T00:28:57.532Z,2.20
2022-11-07T00:31:29.233Z,2.33
2022-11-07T00:34:01.954Z,2.37
2022-11-07T00:36:33.858Z,2.17
2022-11-07T00:39:08.417Z,2.30
2022-11-07T00:41:40.194Z,2.13
2022-11-07T00:44:15.627Z,2.40
2022-11-07T00:46:47.323Z,2.70
2022-11-07T00:49:19.110Z,3.40
2022-11-07T00:51:51.057Z,2.80
2022-11-07T00:54:22.861Z,2.17
2022-11-07T00:56:54.635Z,2.43
2022-11-07T00:59:26.940Z,3.10
2022-11-07T01:01:58.748Z,3.93
2022-11-07T01:04:49.525Z,5.10
2022-11-07T01:07:22.234Z,2.03
2022-11-07T01:09:54.067Z,2.87
2022-11-07T01:12:25.838Z,3.23
2022-11-07T01:14:58.633Z,2.40
2022-11-07T01:17:30.624Z,2.20
2022-11-07T01:20:02.326Z,2.50
2022-11-07T01:22:34.085Z,2.30
2022-11-07T01:25:06.846Z,2.40
2022-11-07T01:27:38.622Z,2.90
2022-11-07T01:30:10.909Z,2.80
2022-11-07T01:32:42.622Z,2.50
2022-11-07T01:35:15.111Z,2.37
2022-11-07T01:37:46.773Z,2.20
2022-11-07T01:40:18.529Z,2.70
2022-11-07T01:42:50.318Z,2.00
2022-11-07T01:45:25.455Z,2.33
2022-11-07T01:48:01.936Z,2.50
2022-11-07T01:50:33.780Z,2.07
2022-11-07T01:53:05.612Z,2.80
2022-11-07T01:55:37.501Z,2.60
2022-11-07T01:58:10.015Z,2.40
2022-11-07T02:00:41.720Z,2.50
2022-11-07T02:03:18.126Z,2.40
2022-11-07T02:05:58.850Z,2.77
2022-11-07T02:08:34.025Z,3.33
2022-11-07T02:11:09.616Z,2.23
2022-11-07T02:13:43.580Z,3.80
2022-11-07T02:16:16.209Z,3.17
2022-11-07T02:18:48.240Z,2.53
2022-11-07T02:21:47.919Z,2.63
2022-11-07T02:24:35.697Z,3.15
2022-11-07T02:27:12.532Z,3.43
2022-11-07T02:29:49.441Z,2.53
2022-11-07T02:32:21.205Z,2.43
2022-11-07T02:34:58.042Z,3.80
2022-11-07T02:37:37.016Z,2.60
2022-11-07T02:40:10.202Z,2.93
2022-11-07T02:42:46.052Z,2.73
2022-11-07T02:45:27.645Z,4.30
2022-11-07T02:48:01.722Z,2.70
2022-11-07T02:50:33.749Z,3.37
2022-11-07T02:53:06.879Z,2.40
2022-11-07T02:55:39.085Z,3.97
2022-11-07T02:58:12.127Z,3.77
2022-11-07T03:00:44.412Z,3.43
2022-11-07T03:03:16.808Z,3.43
2022-11-07T03:05:48.909Z,3.47
2022-11-07T03:08:20.561Z,3.03
2022-11-07T03:10:52.281Z,3.37
2022-11-07T03:13:24.315Z,3.60
2022-11-07T03:15:56.388Z,3.10
2022-11-07T03:18:28.265Z,3.13
2022-11-07T03:21:00.087Z,3.50
2022-11-07T03:23:32.352Z,4.10
2022-11-07T03:26:04.922Z,2.80
2022-11-07T03:28:36.634Z,3.00
2022-11-07T03:31:08.469Z,3.53
2022-11-07T03:33:40.192Z,3.70
2022-11-07T03:36:12.631Z,3.33
2022-11-07T03:38:44.428Z,3.07
2022-11-07T03:41:18.966Z,2.97
2022-11-07T03:43:53.913Z,6.73
2022-11-07T03:46:25.576Z,2.67
2022-11-07T03:48:57.377Z,2.80
2022-11-07T03:51:29.143Z,4.33
2022-11-07T03:54:01.903Z,3.83
2022-11-07T03:56:33.696Z,4.10
2022-11-07T03:59:05.457Z,3.80
2022-11-07T04:01:40.891Z,3.27
2022-11-07T04:04:13.216Z,3.37
2022-11-07T04:06:44.937Z,3.33
2022-11-07T04:09:16.606Z,2.67
2022-11-07T04:12:06.829Z,3.50
2022-11-07T04:14:57.375Z,3.87
2022-11-07T04:17:30.773Z,3.70
2022-11-07T04:20:02.776Z,4.90
2022-11-07T04:22:35.122Z,3.60
2022-11-07T04:25:07.493Z,3.97
2022-11-07T04:27:42.349Z,3.20
2022-11-07T04:30:19.135Z,3.27
2022-11-07T04:32:56.026Z,3.70
2022-11-07T04:35:31.210Z,3.30
2022-11-07T04:38:02.926Z,3.90
2022-11-07T04:40:34.726Z,3.00
2022-11-07T04:43:09.357Z,3.37
2022-11-07T04:45:41.167Z,2.73
2022-11-07T04:48:13.200Z,2.43
2022-11-07T04:50:45.789Z,2.90
2022-11-07T04:53:19.964Z,2.13
2022-11-07T04:55:51.750Z,2.37
2022-11-07T04:58:23.541Z,3.73
2022-11-07T05:00:55.247Z,3.33
2022-11-07T05:03:27.002Z,2.87
2022-11-07T05:05:59.142Z,3.83
2022-11-07T05:08:31.582Z,2.60
2022-11-07T05:11:03.268Z,3.10
2022-11-07T05:13:34.976Z,3.17
2022-11-07T05:16:17.024Z,5.10
2022-11-07T05:18:48.710Z,2.70
2022-11-07T05:21:20.436Z,3.47
2022-11-07T05:23:52.297Z,5.00
2022-11-07T05:26:24.069Z,4.00
2022-11-07T05:28:55.875Z,4.23
2022-11-07T05:31:27.656Z,4.43
2022-11-07T05:33:59.327Z,4.57
2022-11-07T05:36:33.782Z,3.20
2022-11-07T05:39:05.534Z,3.93
2022-11-07T05:41:37.233Z,3.60
2022-11-07T05:44:12.830Z,3.67
2022-11-07T05:46:44.525Z,3.67
2022-11-07T05:49:16.276Z,3.00
2022-11-07T05:51:48.046Z,2.97
2022-11-07T05:54:19.959Z,7.97
2022-11-07T05:56:55.762Z,3.22
2022-11-07T05:59:28.037Z,3.40
2022-11-07T06:01:59.894Z,3.00
2022-11-07T06:04:31.601Z,3.40
2022-11-07T06:07:03.338Z,3.33
2022-11-07T06:09:35.185Z,2.67
2022-11-07T06:12:07.100Z,8.20
2022-11-07T06:14:38.758Z,2.97
2022-11-07T06:17:10.491Z,3.60
2022-11-07T06:19:42.435Z,3.43
2022-11-07T06:22:14.403Z,4.03
2022-11-07T06:24:46.214Z,3.33
2022-11-07T06:27:18.652Z,3.00
2022-11-07T06:29:50.323Z,3.13
2022-11-07T06:32:22.070Z,4.07
2022-11-07T06:34:53.957Z,3.70
2022-11-07T06:37:27.092Z,4.10
2022-11-07T06:39:58.896Z,3.13
2022-11-07T06:42:31.122Z,2.87
2022-11-07T06:45:04.803Z,3.40
2022-11-07T06:47:36.473Z,3.70
2022-11-07T06:50:09.962Z,4.35
2022-11-07T06:52:42.232Z,5.00
2022-11-07T06:55:14.473Z,3.40
2022-11-07T06:57:46.180Z,4.40
2022-11-07T07:00:18.494Z,3.10
2022-11-07T07:02:58.414Z,4.10
2022-11-07T07:05:34.911Z,2.70
2022-11-07T07:08:07.659Z,3.60
2022-11-07T07:10:42.597Z,3.80
2022-11-07T07:13:15.159Z,3.87
2022-11-07T07:15:54.774Z,2.90
2022-11-07T07:18:27.676Z,2.40
2022-11-07T07:21:07.065Z,5.37
2022-11-07T07:23:39.204Z,2.23
2022-11-07T07:26:14.220Z,3.87
2022-11-07T07:28:45.917Z,2.70
2022-11-07T07:31:17.604Z,3.83
2022-11-07T07:33:50.099Z,2.97
2022-11-07T07:36:22.058Z,2.53
2022-11-07T07:38:53.984Z,5.97
2022-11-07T07:41:25.694Z,5.28
2022-11-07T07:43:57.368Z,4.53
2022-11-07T07:46:29.098Z,2.77
2022-11-07T07:49:00.829Z,7.70
2022-11-07T07:51:32.467Z,3.00
2022-11-07T07:54:04.199Z,3.50
2022-11-07T07:56:35.922Z,4.50
2022-11-07T07:59:07.716Z,3.70
2022-11-07T08:01:39.544Z,8.00
2022-11-07T08:04:11.312Z,4.40
2022-11-07T08:06:43.004Z,3.60
2022-11-07T08:09:14.726Z,3.63
2022-11-07T08:11:46.398Z,3.63
2022-11-07T08:14:18.248Z,3.03
2022-11-07T08:16:49.978Z,6.00
2022-11-07T08:19:21.653Z,2.33
2022-11-07T08:21:53.349Z,5.93
2022-11-07T08:24:25.102Z,3.00
2022-11-07T08:26:56.780Z,3.77
2022-11-07T08:29:28.565Z,9.77
2022-11-07T08:32:00.234Z,4.83
2022-11-07T08:34:31.921Z,5.60
2022-11-07T08:37:03.678Z,3.00
2022-11-07T08:39:35.500Z,6.80
2022-11-07T08:42:07.229Z,8.07
2022-11-07T08:44:39.092Z,3.50
2022-11-07T08:47:10.782Z,4.17
2022-11-07T08:49:42.498Z,5.17
2022-11-07T08:52:14.161Z,4.70
2022-11-07T08:54:45.942Z,8.27
2022-11-07T08:57:17.572Z,10.13
2022-11-07T08:59:49.418Z,4.67
2022-11-07T09:03:08.512Z,6.30
2022-11-07T09:05:12.796Z,4.83
2022-11-07T09:07:44.502Z,7.90
2022-11-07T09:10:16.222Z,4.10
2022-11-07T09:12:49.334Z,3.70
2022-11-07T09:15:21.298Z,6.80
2022-11-07T09:17:53.893Z,5.90
2022-11-07T09:20:25.545Z,5.73
2022-11-07T09:22:58.552Z,2.50
2022-11-07T09:25:30.394Z,3.70
2022-11-07T09:28:03.204Z,3.60
2022-11-07T09:30:34.996Z,3.90
2022-11-07T09:33:06.737Z,3.60
2022-11-07T09:35:38.501Z,8.80
2022-11-07T09:38:10.153Z,3.27
2022-11-07T09:41:04.581Z,3.37
2022-11-07T09:43:59.497Z,6.07
2022-11-07T09:46:53.003Z,2.83
2022-11-07T09:49:44.873Z,3.40
2022-11-07T09:52:28.498Z,7.43
2022-11-07T09:55:23.284Z,2.80
2022-11-07T09:58:01.986Z,3.83
2022-11-07T10:00:34.217Z,4.10
2022-11-07T10:03:09.000Z,8.40
2022-11-07T10:06:11.973Z,5.13
2022-11-07T10:09:01.698Z,3.47
2022-11-07T10:11:47.395Z,7.57
2022-11-07T10:14:36.108Z,5.83
2022-11-07T10:17:46.187Z,5.40
2022-11-07T10:20:43.152Z,5.00
2022-11-07T10:23:37.760Z,3.33
2022-11-07T10:26:12.120Z,3.07
2022-11-07T10:29:02.935Z,3.70
2022-11-07T10:31:39.868Z,3.83
2022-11-07T10:34:35.891Z,7.10
2022-11-07T10:37:09.030Z,3.43
2022-11-07T10:39:40.744Z,5.10
2022-11-07T10:42:22.753Z,4.30
2022-11-07T10:44:58.578Z,5.73
2022-11-07T10:47:30.266Z,7.03
2022-11-07T10:50:16.397Z,6.05
2022-11-07T10:53:00.190Z,3.00
2022-11-07T10:55:43.268Z,4.73
2022-11-07T10:58:22.744Z,6.87
2022-11-07T11:01:13.225Z,3.70
2022-11-07T11:03:47.346Z,4.17
2022-11-07T11:06:19.003Z,2.13
2022-11-07T11:08:52.260Z,3.70
2022-11-07T11:11:29.634Z,2.50
2022-11-07T11:14:07.346Z,3.73
2022-11-07T11:16:42.041Z,3.42
2022-11-07T11:19:24.473Z,2.03
2022-11-07T11:21:58.509Z,2.03
2022-11-07T11:24:37.468Z,4.00
2022-11-07T11:27:23.014Z,1.63
2022-11-07T11:30:16.358Z,2.63
2022-11-07T11:33:16.018Z,2.30
2022-11-07T11:36:12.046Z,1.80
2022-11-07T11:38:52.981Z,2.10
2022-11-07T11:41:32.294Z,4.73
2022-11-07T11:44:24.294Z,2.67
2022-11-07T11:47:09.118Z,2.57
2022-11-07T11:49:45.222Z,1.50
2022-11-07T11:52:20.639Z,1.77
2022-11-07T11:54:55.037Z,2.33
2022-11-07T11:57:49.653Z,2.77
2022-11-07T12:00:24.090Z,2.20
2022-11-07T12:02:58.806Z,2.70
2022-11-07T12:05:33.588Z,1.90
2022-11-07T12:08:17.913Z,1.70
2022-11-07T12:11:06.353Z,5.83
2022-11-07T12:14:03.981Z,4.47
2022-11-07T12:17:04.253Z,4.03
2022-11-07T12:19:44.710Z,1.70
2022-11-07T12:22:53.822Z,2.07
2022-11-07T12:25:45.066Z,1.73
2022-11-07T12:28:35.325Z,1.93
2022-11-07T12:31:30.105Z,2.73
2022-11-07T12:34:15.852Z,2.03
2022-11-07T12:37:19.828Z,2.50
2022-11-07T12:39:51.574Z,2.00
2022-11-07T12:42:55.883Z,5.40
2022-11-07T12:46:07.489Z,2.03
2022-11-07T12:48:54.668Z,2.00
2022-11-07T12:51:44.880Z,1.60
2022-11-07T12:54:41.769Z,2.63
2022-11-07T12:57:20.253Z,2.27
2022-11-07T13:00:06.581Z,3.97
2022-11-07T13:03:03.614Z,4.25
2022-11-07T13:05:51.121Z,2.37
2022-11-07T13:08:38.065Z,1.73
2022-11-07T13:11:09.684Z,1.70
2022-11-07T13:14:22.735Z,2.50
2022-11-07T13:17:01.636Z,2.13
2022-11-07T13:19:34.349Z,1.67
2022-11-07T13:22:37.486Z,1.83
2022-11-07T13:25:16.358Z,2.67
2022-11-07T13:27:57.505Z,2.10
2022-11-07T13:30:37.974Z,6.50
2022-11-07T13:33:35.147Z,2.83
2022-11-07T13:36:26.410Z,5.60
2022-11-07T13:39:01.625Z,5.20
2022-11-07T13:41:34.075Z,4.10
2022-11-07T13:44:15.043Z,2.97
2022-11-07T13:46:51.245Z,1.80
2022-11-07T13:49:38.751Z,2.00
2022-11-07T13:52:45.023Z,1.57
2022-11-07T13:55:22.198Z,2.58
2022-11-07T13:58:16.356Z,9.67
2022-11-07T14:00:48.220Z,1.50
2022-11-07T14:03:27.741Z,2.10
2022-11-07T14:05:59.558Z,2.20
2022-11-07T14:08:43.964Z,2.63
2022-11-07T14:11:21.419Z,2.30
2022-11-07T14:13:54.342Z,3.53
2022-11-07T14:16:30.794Z,3.70
2022-11-07T14:19:06.543Z,1.70
2022-11-07T14:21:38.307Z,5.03
2022-11-07T14:24:28.066Z,4.10
2022-11-07T14:27:06.075Z,3.50
2022-11-07T14:29:37.853Z,3.97
2022-11-07T14:32:17.224Z,3.87
2022-11-07T14:34:51.504Z,2.17
2022-11-07T14:37:25.626Z,1.87
2022-11-07T14:39:57.470Z,1.70
2022-11-07T14:42:29.386Z,2.10
2022-11-07T14:45:02.042Z,2.30
2022-11-07T14:47:35.027Z,1.80
2022-11-07T14:50:07.487Z,3.70
2022-11-07T14:52:47.922Z,2.20
2022-11-07T14:55:46.732Z,2.10
2022-11-07T14:58:22.001Z,6.67
2022-11-07T15:01:09.638Z,2.33
2022-11-07T15:03:59.635Z,2.97
2022-11-07T15:06:40.795Z,2.00
2022-11-07T15:09:12.583Z,3.03
2022-11-07T15:11:58.474Z,5.83
2022-11-07T15:14:35.700Z,7.10
2022-11-07T15:17:17.255Z,3.60
2022-11-07T15:20:06.360Z,2.63
2022-11-07T15:22:39.265Z,2.10
2022-11-07T15:25:38.231Z,2.23
2022-11-07T15:28:24.052Z,2.40
2022-11-07T15:30:58.595Z,6.33
2022-11-07T15:33:32.539Z,2.23
2022-11-07T15:36:04.572Z,2.90
2022-11-07T15:38:36.285Z,1.93
2022-11-07T15:41:07.993Z,7.93
2022-11-07T15:43:39.942Z,1.52
2022-11-07T15:46:23.605Z,4.93
2022-11-07T15:48:57.134Z,2.77
2022-11-07T15:51:29.798Z,7.30
2022-11-07T15:54:01.481Z,4.83
2022-11-07T15:56:33.447Z,4.23
2022-11-07T15:59:14.802Z,6.33
2022-11-07T16:01:47.131Z,4.80
2022-11-07T16:04:18.882Z,3.37
2022-11-07T16:06:50.654Z,5.20
2022-11-07T16:09:22.750Z,2.70
2022-11-07T16:11:54.488Z,4.03
2022-11-07T16:17:19.381Z,2.47
2022-11-07T16:19:51.241Z,5.40
2022-11-07T16:22:22.900Z,4.60
2022-11-07T16:24:54.594Z,7.70
2022-11-07T16:27:26.823Z,3.13
2022-11-07T16:29:58.494Z,2.53
2022-11-07T16:32:30.146Z,3.20
2022-11-07T16:35:01.842Z,3.80
2022-11-07T16:37:34.272Z,4.27
2022-11-07T16:40:08.696Z,6.97
2022-11-07T16:42:40.531Z,6.03
2022-11-07T16:45:17.366Z,5.97
2022-11-07T16:47:49.043Z,21.13
2022-11-07T16:50:20.866Z,18.20
2022-11-07T16:52:52.638Z,14.90
2022-11-07T16:55:24.329Z,16.60
2022-11-07T16:57:56.020Z,13.40
2022-11-07T17:00:28.043Z,7.10
2022-11-07T17:02:59.854Z,5.30
2022-11-07T17:05:31.598Z,5.93
2022-11-07T17:08:05.222Z,9.73
2022-11-07T17:10:36.913Z,4.57
2022-11-07T17:13:08.591Z,8.67
2022-11-07T17:15:41.408Z,6.23
2022-11-07T17:18:24.947Z,4.50
2022-11-07T17:20:56.750Z,3.83
2022-11-07T17:23:30.486Z,3.60
2022-11-07T17:26:02.914Z,3.90
2022-11-07T17:28:34.570Z,4.60
2022-11-07T17:31:06.292Z,9.23
2022-11-07T17:33:37.937Z,6.00
2022-11-07T17:36:35.332Z,7.17
2022-11-07T17:39:12.218Z,5.40
2022-11-07T17:41:45.674Z,6.03
2022-11-07T17:44:18.487Z,4.03
2022-11-07T17:46:50.601Z,3.40
2022-11-07T17:49:22.335Z,6.70
2022-11-07T17:51:54.602Z,10.47
2022-11-07T17:54:29.441Z,6.20
2022-11-07T17:57:03.638Z,4.10
2022-11-07T17:59:43.506Z,3.50
2022-11-07T18:02:20.707Z,5.10
2022-11-07T18:04:54.651Z,4.40
2022-11-07T18:07:26.411Z,4.43
2022-11-07T18:09:58.129Z,3.73
2022-11-07T18:12:30.072Z,4.50
2022-11-07T18:15:01.919Z,5.67
2022-11-07T18:17:35.534Z,3.63
2022-11-07T18:20:11.337Z,6.63
2022-11-07T18:22:42.994Z,4.60
2022-11-07T18:25:14.768Z,6.37
2022-11-07T18:27:47.942Z,5.30
2022-11-07T18:30:19.733Z,8.87
2022-11-07T18:32:51.604Z,4.90
2022-11-07T18:35:23.628Z,5.13
2022-11-07T18:37:55.915Z,4.60
2022-11-07T18:40:27.584Z,4.67
2022-11-07T18:42:59.364Z,4.63
2022-11-07T18:45:31.185Z,4.43
2022-11-07T18:48:05.108Z,4.70
2022-11-07T18:50:38.248Z,4.87
2022-11-07T18:53:10.054Z,5.00
2022-11-07T18:55:41.882Z,4.60
2022-11-07T18:58:13.939Z,4.30
2022-11-07T19:00:45.868Z,5.10
2022-11-07T19:03:17.947Z,5.90
2022-11-07T19:05:50.174Z,5.13
2022-11-07T19:08:21.919Z,5.97
2022-11-07T19:10:53.616Z,10.40
2022-11-07T19:13:26.670Z,4.80
2022-11-07T19:16:01.190Z,5.30
2022-11-07T19:18:33.159Z,6.20
2022-11-07T19:21:05.472Z,4.93
2022-11-07T19:23:39.332Z,4.40
2022-11-07T19:26:12.498Z,5.43
2022-11-07T19:28:44.189Z,5.50
2022-11-07T19:31:16.020Z,6.13
2022-11-07T19:33:48.342Z,7.20
2022-11-07T19:36:21.390Z,3.93
2022-11-07T19:38:53.197Z,8.87
2022-11-07T19:41:25.996Z,4.80
2022-11-07T19:43:59.216Z,8.50
2022-11-07T19:46:31.022Z,4.47
2022-11-07T19:49:02.776Z,7.00
2022-11-07T19:51:36.170Z,4.47
2022-11-07T19:54:08.487Z,5.67
2022-11-07T19:56:40.261Z,5.60
2022-11-07T19:59:12.063Z,7.17
2022-11-07T20:01:43.940Z,9.57
2022-11-07T20:04:15.786Z,13.03
2022-11-07T20:06:50.182Z,7.60
2022-11-07T20:09:21.950Z,7.10
2022-11-07T20:11:53.737Z,9.23
2022-11-07T20:14:27.302Z,9.33
2022-11-07T20:16:59.407Z,8.70
2022-11-07T20:19:33.870Z,7.47
2022-11-07T20:22:05.684Z,10.10
2022-11-07T20:24:37.643Z,9.37
2022-11-07T20:27:09.357Z,9.00
2022-11-07T20:29:41.114Z,7.40
2022-11-07T20:32:13.030Z,6.27
2022-11-07T20:34:47.742Z,6.85
2022-11-07T20:37:21.925Z,7.50
2022-11-07T20:39:53.738Z,7.77
2022-11-07T20:42:25.680Z,8.57
2022-11-07T20:44:57.500Z,5.50
2022-11-07T20:47:29.319Z,6.93
2022-11-07T20:50:01.076Z,10.00
2022-11-07T20:52:32.790Z,7.20
2022-11-07T20:55:04.982Z,8.53
2022-11-07T20:57:36.793Z,7.30
2022-11-07T21:00:09.414Z,6.60
2022-11-07T21:02:43.418Z,6.70
2022-11-07T21:05:18.145Z,7.63
2022-11-07T21:07:50.367Z,8.13
2022-11-07T21:10:22.313Z,6.37
2022-11-07T21:12:54.103Z,6.60
2022-11-07T21:15:25.831Z,7.50
2022-11-07T21:17:57.616Z,7.23
2022-11-07T21:20:29.786Z,6.77
2022-11-07T21:23:01.647Z,6.07
2022-11-07T21:25:34.842Z,7.90
2022-11-07T21:28:07.565Z,7.23
2022-11-07T21:30:40.370Z,6.23
2022-11-07T21:33:13.155Z,7.60
2022-11-07T21:35:44.931Z,7.97
2022-11-07T21:38:16.678Z,6.40
2022-11-07T21:40:49.662Z,6.10
2022-11-07T21:43:22.431Z,6.43
2022-11-07T21:45:54.187Z,6.83
2022-11-07T21:48:25.852Z,7.40
2022-11-07T21:50:57.550Z,5.57
2022-11-07T21:53:29.231Z,6.27
2022-11-07T21:56:01.167Z,7.95
2022-11-07T21:58:33.097Z,10.37
2022-11-07T22:01:05.740Z,10.50
2022-11-07T22:04:04.816Z,8.13
2022-11-07T22:06:31.909Z,7.10
2022-11-07T22:09:04.739Z,7.90
2022-11-07T22:11:36.543Z,6.33
2022-11-07T22:14:11.606Z,7.10
2022-11-07T22:16:43.884Z,5.97
2022-11-07T22:19:16.964Z,8.70
2022-11-07T22:21:49.852Z,5.53
2022-11-07T22:24:23.743Z,4.75
2022-11-07T22:26:55.883Z,8.93
2022-11-07T22:29:27.624Z,5.60
2022-11-07T22:32:00.964Z,7.27
2022-11-07T22:34:32.699Z,5.80
2022-11-07T22:37:04.613Z,6.90
2022-11-07T22:39:36.507Z,6.40
2022-11-07T22:42:08.457Z,5.40
2022-11-07T22:44:40.244Z,6.53
2022-11-07T22:47:12.032Z,8.20
2022-11-07T22:49:43.807Z,5.50
2022-11-07T22:52:15.506Z,5.43
2022-11-07T22:54:49.719Z,6.20
2022-11-07T22:57:22.310Z,7.53
2022-11-07T22:59:54.149Z,7.87
2022-11-07T23:02:27.102Z,7.07
2022-11-07T23:04:58.922Z,7.17
2022-11-07T23:07:30.928Z,7.43
2022-11-07T23:10:03.928Z,8.07
2022-11-07T23:12:35.776Z,10.20
2022-11-07T23:15:08.177Z,12.40
2022-11-07T23:17:40.919Z,8.57
2022-11-07T23:20:32.831Z,9.17
2022-11-07T23:23:05.017Z,8.90
2022-11-07T23:25:36.934Z,10.67
2022-11-07T23:28:08.632Z,8.87
2022-11-07T23:30:42.897Z,8.40
2022-11-07T23:33:14.659Z,8.40
2022-11-07T23:35:48.171Z,7.13
2022-11-07T23:38:20.219Z,8.03
2022-11-07T23:40:52.074Z,7.80
2022-11-07T23:43:23.839Z,8.00
2022-11-07T23:46:18.306Z,7.57
2022-11-07T23:49:14.220Z,7.80
2022-11-07T23:51:47.323Z,7.77
2022-11-07T23:54:37.611Z,7.03
2022-11-07T23:57:09.287Z,7.23
2022-11-07T23:59:59.893Z,8.80
